Tekamah, Nebraska
Current Conditions -  °F | °C
As of 7:54 AM on Saturday 25 Oct 2014 (Local Time) from KTQE Reporting Station
Clear Clear  
Wind Chill: 39°   Ceiling: Unl
Heat Index: 43°   Visibility: 10mi
Dew Point: 40°   Wind: 6mph
Humidity: 89%   Direction: 360°N
Pressure: 30.09"   Gusts: NA
Location:  41.78°N, 96.22°W
Report Text: KTQE 251254Z AUTO 36005KT 10SM CLR 06/04 A3009 RMK AO2 SLP187 T00610044
Loading
Personal Weather Stations






























Interactive Weather Map New forecast layout! Learn more

10-Day Weather Forecast

Advertisements
Track Severe Weather on mobile